sensor_id;sensor_type;location;lat;lon;timestamp;temperature;humidity
33815;DHT22;20121;51.910;8.406;2023-08-21T00:01:28;19.20;99.90
33815;DHT22;20121;51.910;8.406;2023-08-21T00:03:53;19.20;99.90
33815;DHT22;20121;51.910;8.406;2023-08-21T00:06:19;19.20;99.90
33815;DHT22;20121;51.910;8.406;2023-08-21T00:08:45;19.10;99.90
33815;DHT22;20121;51.910;8.406;2023-08-21T00:11:10;19.10;99.90
33815;DHT22;20121;51.910;8.406;2023-08-21T00:13:36;19.10;99.90
33815;DHT22;20121;51.910;8.406;2023-08-21T00:16:01;19.00;99.90
33815;DHT22;20121;51.910;8.406;2023-08-21T00:18:27;19.00;99.90
33815;DHT22;20121;51.910;8.406;2023-08-21T00:20:53;18.90;99.90
33815;DHT22;20121;51.910;8.406;2023-08-21T00:23:18;18.90;99.90
33815;DHT22;20121;51.910;8.406;2023-08-21T00:25:47;19.20;99.90
33815;DHT22;20121;51.910;8.406;2023-08-21T00:28:13;18.90;99.90
33815;DHT22;20121;51.910;8.406;2023-08-21T00:30:39;18.90;99.90
33815;DHT22;20121;51.910;8.406;2023-08-21T00:33:05;18.90;99.90
33815;DHT22;20121;51.910;8.406;2023-08-21T00:35:31;19.10;99.90
33815;DHT22;20121;51.910;8.406;2023-08-21T00:37:56;18.80;99.90
33815;DHT22;20121;51.910;8.406;2023-08-21T00:40:22;18.50;99.90
33815;DHT22;20121;51.910;8.406;2023-08-21T00:42:48;18.70;99.90
33815;DHT22;20121;51.910;8.406;2023-08-21T00:45:13;18.70;99.90
33815;DHT22;20121;51.910;8.406;2023-08-21T00:47:39;18.70;99.90
33815;DHT22;20121;51.910;8.406;2023-08-21T00:50:07;18.70;99.90
33815;DHT22;20121;51.910;8.406;2023-08-21T00:52:34;18.70;99.90
33815;DHT22;20121;51.910;8.406;2023-08-21T00:55:00;18.60;99.90
33815;DHT22;20121;51.910;8.406;2023-08-21T00:57:27;18.60;99.90
33815;DHT22;20121;51.910;8.406;2023-08-21T00:59:53;18.90;99.90
33815;DHT22;20121;51.910;8.406;2023-08-21T01:02:18;18.60;99.90
33815;DHT22;20121;51.910;8.406;2023-08-21T01:04:44;18.50;99.90
33815;DHT22;20121;51.910;8.406;2023-08-21T01:07:10;18.50;99.90
33815;DHT22;20121;51.910;8.406;2023-08-21T01:09:39;18.50;99.90
33815;DHT22;20121;51.910;8.406;2023-08-21T01:15:06;18.50;99.90
33815;DHT22;20121;51.910;8.406;2023-08-21T01:17:34;18.40;99.90
33815;DHT22;20121;51.910;8.406;2023-08-21T01:20:02;18.40;99.90
33815;DHT22;20121;51.910;8.406;2023-08-21T01:22:36;18.40;99.90
33815;DHT22;20121;51.910;8.406;2023-08-21T01:25:02;18.40;99.90
33815;DHT22;20121;51.910;8.406;2023-08-21T01:27:28;18.40;99.90
33815;DHT22;20121;51.910;8.406;2023-08-21T01:29:53;18.40;99.90
33815;DHT22;20121;51.910;8.406;2023-08-21T01:32:33;18.50;99.90
33815;DHT22;20121;51.910;8.406;2023-08-21T01:35:00;18.50;99.90
33815;DHT22;20121;51.910;8.406;2023-08-21T01:37:27;18.50;99.90
33815;DHT22;20121;51.910;8.406;2023-08-21T01:39:53;18.50;99.90
33815;DHT22;20121;51.910;8.406;2023-08-21T01:42:19;18.50;99.90
33815;DHT22;20121;51.910;8.406;2023-08-21T01:44:45;18.50;99.90
33815;DHT22;20121;51.910;8.406;2023-08-21T01:47:12;18.50;99.90
33815;DHT22;20121;51.910;8.406;2023-08-21T01:49:37;18.50;99.90
33815;DHT22;20121;51.910;8.406;2023-08-21T01:52:03;18.50;99.90
33815;DHT22;20121;51.910;8.406;2023-08-21T01:54:30;18.50;99.90
33815;DHT22;20121;51.910;8.406;2023-08-21T01:56:56;18.50;99.90
33815;DHT22;20121;51.910;8.406;2023-08-21T01:59:23;18.40;99.90
33815;DHT22;20121;51.910;8.406;2023-08-21T02:01:49;18.50;99.90
33815;DHT22;20121;51.910;8.406;2023-08-21T02:04:15;18.50;99.90
33815;DHT22;20121;51.910;8.406;2023-08-21T02:06:40;18.50;99.90
33815;DHT22;20121;51.910;8.406;2023-08-21T02:09:06;18.50;99.90
33815;DHT22;20121;51.910;8.406;2023-08-21T02:11:32;18.40;99.90
33815;DHT22;20121;51.910;8.406;2023-08-21T02:13:57;18.40;99.90
33815;DHT22;20121;51.910;8.406;2023-08-21T02:16:23;18.40;99.90
33815;DHT22;20121;51.910;8.406;2023-08-21T02:18:49;18.40;99.90
33815;DHT22;20121;51.910;8.406;2023-08-21T02:21:14;18.40;99.90
33815;DHT22;20121;51.910;8.406;2023-08-21T02:23:40;18.40;99.90
33815;DHT22;20121;51.910;8.406;2023-08-21T02:26:05;18.40;99.90
33815;DHT22;20121;51.910;8.406;2023-08-21T02:28:31;18.40;99.90
33815;DHT22;20121;51.910;8.406;2023-08-21T02:30:57;18.40;99.90
33815;DHT22;20121;51.910;8.406;2023-08-21T02:33:22;18.30;99.90
33815;DHT22;20121;51.910;8.406;2023-08-21T02:35:48;18.60;99.90
33815;DHT22;20121;51.910;8.406;2023-08-21T02:38:14;18.40;99.90
33815;DHT22;20121;51.910;8.406;2023-08-21T02:40:39;18.40;99.90
33815;DHT22;20121;51.910;8.406;2023-08-21T02:43:05;18.40;99.90
33815;DHT22;20121;51.910;8.406;2023-08-21T02:45:31;18.20;99.90
33815;DHT22;20121;51.910;8.406;2023-08-21T02:47:56;18.40;99.90
33815;DHT22;20121;51.910;8.406;2023-08-21T02:50:22;18.50;99.90
33815;DHT22;20121;51.910;8.406;2023-08-21T02:52:48;18.50;99.90
33815;DHT22;20121;51.910;8.406;2023-08-21T02:55:13;18.40;99.90
33815;DHT22;20121;51.910;8.406;2023-08-21T02:57:39;18.50;99.90
33815;DHT22;20121;51.910;8.406;2023-08-21T03:00:05;18.50;99.90
33815;DHT22;20121;51.910;8.406;2023-08-21T03:02:33;18.50;99.90
33815;DHT22;20121;51.910;8.406;2023-08-21T03:04:59;18.50;99.90
33815;DHT22;20121;51.910;8.406;2023-08-21T03:07:24;18.50;99.90
33815;DHT22;20121;51.910;8.406;2023-08-21T03:09:50;18.50;99.90
33815;DHT22;20121;51.910;8.406;2023-08-21T03:12:16;18.50;99.90
33815;DHT22;20121;51.910;8.406;2023-08-21T03:14:42;18.60;99.90
33815;DHT22;20121;51.910;8.406;2023-08-21T03:17:07;18.60;99.90
33815;DHT22;20121;51.910;8.406;2023-08-21T03:19:33;19.10;99.90
33815;DHT22;20121;51.910;8.406;2023-08-21T03:21:59;18.50;99.90
33815;DHT22;20121;51.910;8.406;2023-08-21T03:24:24;18.60;99.90
33815;DHT22;20121;51.910;8.406;2023-08-21T03:26:50;18.60;99.90
33815;DHT22;20121;51.910;8.406;2023-08-21T03:29:16;18.50;99.90
33815;DHT22;20121;51.910;8.406;2023-08-21T03:31:41;18.60;99.90
33815;DHT22;20121;51.910;8.406;2023-08-21T03:34:07;18.70;99.90
33815;DHT22;20121;51.910;8.406;2023-08-21T03:36:33;18.50;99.90
33815;DHT22;20121;51.910;8.406;2023-08-21T03:39:03;18.50;99.90
33815;DHT22;20121;51.910;8.406;2023-08-21T03:41:31;18.50;99.90
33815;DHT22;20121;51.910;8.406;2023-08-21T03:43:57;18.40;99.90
33815;DHT22;20121;51.910;8.406;2023-08-21T03:46:22;18.40;99.90
33815;DHT22;20121;51.910;8.406;2023-08-21T03:48:48;18.40;99.90
33815;DHT22;20121;51.910;8.406;2023-08-21T03:51:15;18.40;99.90
33815;DHT22;20121;51.910;8.406;2023-08-21T03:53:41;18.30;99.90
33815;DHT22;20121;51.910;8.406;2023-08-21T03:56:07;18.40;99.90
33815;DHT22;20121;51.910;8.406;2023-08-21T03:58:33;18.60;99.90
33815;DHT22;20121;51.910;8.406;2023-08-21T04:00:59;18.30;99.90
33815;DHT22;20121;51.910;8.406;2023-08-21T04:03:25;18.30;99.90
33815;DHT22;20121;51.910;8.406;2023-08-21T04:05:53;18.20;99.90
33815;DHT22;20121;51.910;8.406;2023-08-21T04:08:19;18.20;99.90
33815;DHT22;20121;51.910;8.406;2023-08-21T04:10:44;18.20;99.90
33815;DHT22;20121;51.910;8.406;2023-08-21T04:13:10;18.20;99.90
33815;DHT22;20121;51.910;8.406;2023-08-21T04:15:37;18.50;99.90
33815;DHT22;20121;51.910;8.406;2023-08-21T04:18:03;18.20;99.90
33815;DHT22;20121;51.910;8.406;2023-08-21T04:20:29;18.20;99.90
33815;DHT22;20121;51.910;8.406;2023-08-21T04:22:55;18.20;99.90
33815;DHT22;20121;51.910;8.406;2023-08-21T04:25:20;18.20;99.90
33815;DHT22;20121;51.910;8.406;2023-08-21T04:27:46;18.20;99.90
33815;DHT22;20121;51.910;8.406;2023-08-21T04:30:12;18.20;99.90
33815;DHT22;20121;51.910;8.406;2023-08-21T04:32:38;18.20;99.90
33815;DHT22;20121;51.910;8.406;2023-08-21T04:35:04;18.20;99.90
33815;DHT22;20121;51.910;8.406;2023-08-21T04:37:31;18.20;99.90
33815;DHT22;20121;51.910;8.406;2023-08-21T04:39:56;18.20;99.90
33815;DHT22;20121;51.910;8.406;2023-08-21T04:42:22;18.30;99.90
33815;DHT22;20121;51.910;8.406;2023-08-21T04:44:48;18.20;99.90
33815;DHT22;20121;51.910;8.406;2023-08-21T04:47:26;18.30;99.90
33815;DHT22;20121;51.910;8.406;2023-08-21T04:49:53;18.30;99.90
33815;DHT22;20121;51.910;8.406;2023-08-21T04:52:19;18.30;99.90
33815;DHT22;20121;51.910;8.406;2023-08-21T04:54:46;18.30;99.90
33815;DHT22;20121;51.910;8.406;2023-08-21T04:57:12;18.40;99.90
33815;DHT22;20121;51.910;8.406;2023-08-21T04:59:38;18.40;99.90
33815;DHT22;20121;51.910;8.406;2023-08-21T05:02:03;18.10;99.90
33815;DHT22;20121;51.910;8.406;2023-08-21T05:04:29;18.40;99.90
33815;DHT22;20121;51.910;8.406;2023-08-21T05:06:55;18.40;99.90
33815;DHT22;20121;51.910;8.406;2023-08-21T05:09:20;18.40;99.90
33815;DHT22;20121;51.910;8.406;2023-08-21T05:11:46;18.40;99.90
33815;DHT22;20121;51.910;8.406;2023-08-21T05:14:12;18.40;99.90
33815;DHT22;20121;51.910;8.406;2023-08-21T05:16:37;18.40;99.90
33815;DHT22;20121;51.910;8.406;2023-08-21T05:19:03;18.40;99.90
33815;DHT22;20121;51.910;8.406;2023-08-21T05:21:29;18.50;99.90
33815;DHT22;20121;51.910;8.406;2023-08-21T05:23:54;18.50;99.90
33815;DHT22;20121;51.910;8.406;2023-08-21T05:26:20;18.70;99.90
33815;DHT22;20121;51.910;8.406;2023-08-21T05:28:45;18.70;99.90
33815;DHT22;20121;51.910;8.406;2023-08-21T05:31:11;18.80;99.90
33815;DHT22;20121;51.910;8.406;2023-08-21T05:33:37;18.80;99.90
33815;DHT22;20121;51.910;8.406;2023-08-21T05:36:03;18.90;99.90
33815;DHT22;20121;51.910;8.406;2023-08-21T05:38:28;18.90;99.90
33815;DHT22;20121;51.910;8.406;2023-08-21T05:40:54;18.90;99.90
33815;DHT22;20121;51.910;8.406;2023-08-21T05:43:19;18.90;99.90
33815;DHT22;20121;51.910;8.406;2023-08-21T05:45:45;18.70;99.90
33815;DHT22;20121;51.910;8.406;2023-08-21T05:48:11;19.00;99.90
33815;DHT22;20121;51.910;8.406;2023-08-21T05:50:39;19.20;99.90
33815;DHT22;20121;51.910;8.406;2023-08-21T05:53:05;19.20;99.90
33815;DHT22;20121;51.910;8.406;2023-08-21T05:55:31;19.30;99.90
33815;DHT22;20121;51.910;8.406;2023-08-21T05:57:57;19.30;99.90
33815;DHT22;20121;51.910;8.406;2023-08-21T06:00:23;19.40;99.90
33815;DHT22;20121;51.910;8.406;2023-08-21T06:02:49;19.50;99.90
33815;DHT22;20121;51.910;8.406;2023-08-21T06:05:14;19.50;99.90
33815;DHT22;20121;51.910;8.406;2023-08-21T06:07:40;19.60;99.90
33815;DHT22;20121;51.910;8.406;2023-08-21T06:10:09;19.70;99.90
33815;DHT22;20121;51.910;8.406;2023-08-21T06:12:39;19.70;99.90
33815;DHT22;20121;51.910;8.406;2023-08-21T06:15:05;19.70;99.90
33815;DHT22;20121;51.910;8.406;2023-08-21T06:17:33;19.80;99.90
33815;DHT22;20121;51.910;8.406;2023-08-21T06:19:58;20.00;99.90
33815;DHT22;20121;51.910;8.406;2023-08-21T06:22:24;20.00;99.90
33815;DHT22;20121;51.910;8.406;2023-08-21T06:24:50;20.00;99.90
33815;DHT22;20121;51.910;8.406;2023-08-21T06:27:16;20.10;99.90
33815;DHT22;20121;51.910;8.406;2023-08-21T06:29:41;20.10;99.90
33815;DHT22;20121;51.910;8.406;2023-08-21T06:32:07;20.20;99.90
33815;DHT22;20121;51.910;8.406;2023-08-21T06:34:33;20.20;99.90
33815;DHT22;20121;51.910;8.406;2023-08-21T06:36:58;20.30;99.90
33815;DHT22;20121;51.910;8.406;2023-08-21T06:39:25;20.40;99.90
33815;DHT22;20121;51.910;8.406;2023-08-21T06:41:51;20.50;99.90
33815;DHT22;20121;51.910;8.406;2023-08-21T06:44:17;20.50;99.90
33815;DHT22;20121;51.910;8.406;2023-08-21T06:46:42;20.60;99.90
33815;DHT22;20121;51.910;8.406;2023-08-21T06:49:08;20.80;99.90
33815;DHT22;20121;51.910;8.406;2023-08-21T06:51:34;20.90;99.90
33815;DHT22;20121;51.910;8.406;2023-08-21T06:54:00;21.00;99.90
33815;DHT22;20121;51.910;8.406;2023-08-21T06:56:25;21.10;99.90
33815;DHT22;20121;51.910;8.406;2023-08-21T06:58:51;21.20;99.90
33815;DHT22;20121;51.910;8.406;2023-08-21T07:01:17;21.20;99.90
33815;DHT22;20121;51.910;8.406;2023-08-21T07:03:43;21.40;99.90
33815;DHT22;20121;51.910;8.406;2023-08-21T07:06:09;21.50;99.90
33815;DHT22;20121;51.910;8.406;2023-08-21T07:08:34;21.60;99.90
33815;DHT22;20121;51.910;8.406;2023-08-21T07:11:02;21.70;99.90
33815;DHT22;20121;51.910;8.406;2023-08-21T07:13:29;21.80;99.90
33815;DHT22;20121;51.910;8.406;2023-08-21T07:15:55;21.90;99.90
33815;DHT22;20121;51.910;8.406;2023-08-21T07:18:21;21.90;99.90
33815;DHT22;20121;51.910;8.406;2023-08-21T07:20:46;22.00;99.90
33815;DHT22;20121;51.910;8.406;2023-08-21T07:23:12;22.00;99.90
33815;DHT22;20121;51.910;8.406;2023-08-21T07:25:38;22.30;99.90
33815;DHT22;20121;51.910;8.406;2023-08-21T07:28:03;22.10;99.90
33815;DHT22;20121;51.910;8.406;2023-08-21T07:30:29;22.10;99.90
33815;DHT22;20121;51.910;8.406;2023-08-21T07:32:55;22.20;99.90
33815;DHT22;20121;51.910;8.406;2023-08-21T07:35:21;22.20;99.90
33815;DHT22;20121;51.910;8.406;2023-08-21T07:37:46;22.20;99.90
33815;DHT22;20121;51.910;8.406;2023-08-21T07:40:12;22.20;99.90
33815;DHT22;20121;51.910;8.406;2023-08-21T07:42:38;22.20;99.90
33815;DHT22;20121;51.910;8.406;2023-08-21T07:45:04;22.30;99.90
33815;DHT22;20121;51.910;8.406;2023-08-21T07:47:30;22.40;99.90
33815;DHT22;20121;51.910;8.406;2023-08-21T07:49:56;22.40;99.90
33815;DHT22;20121;51.910;8.406;2023-08-21T07:52:23;22.50;99.90
33815;DHT22;20121;51.910;8.406;2023-08-21T07:54:52;22.60;99.90
33815;DHT22;20121;51.910;8.406;2023-08-21T07:57:18;22.70;99.90
33815;DHT22;20121;51.910;8.406;2023-08-21T07:59:44;22.80;99.90
33815;DHT22;20121;51.910;8.406;2023-08-21T08:02:09;22.90;99.90
33815;DHT22;20121;51.910;8.406;2023-08-21T08:04:38;22.90;99.90
33815;DHT22;20121;51.910;8.406;2023-08-21T08:07:03;23.00;99.90
33815;DHT22;20121;51.910;8.406;2023-08-21T08:09:29;23.10;99.90
33815;DHT22;20121;51.910;8.406;2023-08-21T08:11:55;23.20;99.90
33815;DHT22;20121;51.910;8.406;2023-08-21T08:14:20;23.30;99.90
33815;DHT22;20121;51.910;8.406;2023-08-21T08:16:46;23.50;99.90
33815;DHT22;20121;51.910;8.406;2023-08-21T08:19:12;23.60;99.90
33815;DHT22;20121;51.910;8.406;2023-08-21T08:21:37;23.70;99.90
33815;DHT22;20121;51.910;8.406;2023-08-21T08:24:03;23.80;99.90
33815;DHT22;20121;51.910;8.406;2023-08-21T08:26:29;23.80;99.90
33815;DHT22;20121;51.910;8.406;2023-08-21T08:28:55;24.10;99.90
33815;DHT22;20121;51.910;8.406;2023-08-21T08:31:20;23.70;99.90
33815;DHT22;20121;51.910;8.406;2023-08-21T08:33:46;23.70;99.90
33815;DHT22;20121;51.910;8.406;2023-08-21T08:36:13;23.70;99.90
33815;DHT22;20121;51.910;8.406;2023-08-21T08:38:38;23.70;99.90
33815;DHT22;20121;51.910;8.406;2023-08-21T08:41:10;23.70;99.90
33815;DHT22;20121;51.910;8.406;2023-08-21T08:43:39;23.90;99.90
33815;DHT22;20121;51.910;8.406;2023-08-21T08:46:07;24.10;99.90
33815;DHT22;20121;51.910;8.406;2023-08-21T08:48:36;24.20;99.90
33815;DHT22;20121;51.910;8.406;2023-08-21T08:51:03;24.40;99.90
33815;DHT22;20121;51.910;8.406;2023-08-21T08:53:29;24.50;99.90
33815;DHT22;20121;51.910;8.406;2023-08-21T08:55:57;24.60;99.90
33815;DHT22;20121;51.910;8.406;2023-08-21T08:58:23;24.80;99.90
33815;DHT22;20121;51.910;8.406;2023-08-21T09:00:48;25.00;99.90
33815;DHT22;20121;51.910;8.406;2023-08-21T09:03:14;24.80;99.90
33815;DHT22;20121;51.910;8.406;2023-08-21T09:05:41;25.60;99.90
33815;DHT22;20121;51.910;8.406;2023-08-21T09:08:10;25.30;99.90
33815;DHT22;20121;51.910;8.406;2023-08-21T09:10:38;25.30;99.90
33815;DHT22;20121;51.910;8.406;2023-08-21T09:13:18;25.40;99.90
33815;DHT22;20121;51.910;8.406;2023-08-21T09:15:52;25.80;99.90
33815;DHT22;20121;51.910;8.406;2023-08-21T09:18:19;25.50;99.90
33815;DHT22;20121;51.910;8.406;2023-08-21T09:20:44;25.50;99.90
33815;DHT22;20121;51.910;8.406;2023-08-21T09:23:17;25.10;99.90
33815;DHT22;20121;51.910;8.406;2023-08-21T09:25:48;24.90;99.90
33815;DHT22;20121;51.910;8.406;2023-08-21T09:28:14;25.30;99.90
33815;DHT22;20121;51.910;8.406;2023-08-21T09:30:58;25.20;99.90
33815;DHT22;20121;51.910;8.406;2023-08-21T09:33:24;25.30;99.90
33815;DHT22;20121;51.910;8.406;2023-08-21T09:35:53;25.70;99.90
33815;DHT22;20121;51.910;8.406;2023-08-21T09:38:19;25.50;99.90
33815;DHT22;20121;51.910;8.406;2023-08-21T09:40:53;25.60;99.90
33815;DHT22;20121;51.910;8.406;2023-08-21T09:43:20;25.80;99.90
33815;DHT22;20121;51.910;8.406;2023-08-21T09:45:51;26.20;99.90
33815;DHT22;20121;51.910;8.406;2023-08-21T09:48:22;25.80;99.90
33815;DHT22;20121;51.910;8.406;2023-08-21T09:50:51;25.80;99.90
33815;DHT22;20121;51.910;8.406;2023-08-21T09:53:17;25.90;99.90
33815;DHT22;20121;51.910;8.406;2023-08-21T09:55:43;25.50;99.90
33815;DHT22;20121;51.910;8.406;2023-08-21T09:58:09;25.60;99.90
33815;DHT22;20121;51.910;8.406;2023-08-21T10:00:37;25.50;99.90
33815;DHT22;20121;51.910;8.406;2023-08-21T10:03:12;25.40;99.90
33815;DHT22;20121;51.910;8.406;2023-08-21T10:05:39;24.30;99.90
33815;DHT22;20121;51.910;8.406;2023-08-21T10:08:06;25.30;99.90
33815;DHT22;20121;51.910;8.406;2023-08-21T10:10:34;25.20;99.90
33815;DHT22;20121;51.910;8.406;2023-08-21T10:13:00;25.30;99.90
33815;DHT22;20121;51.910;8.406;2023-08-21T10:15:29;25.50;99.90
33815;DHT22;20121;51.910;8.406;2023-08-21T10:17:56;25.70;99.90
33815;DHT22;20121;51.910;8.406;2023-08-21T10:20:23;25.80;99.90
33815;DHT22;20121;51.910;8.406;2023-08-21T10:22:52;25.90;99.90
33815;DHT22;20121;51.910;8.406;2023-08-21T10:25:19;26.00;99.90
33815;DHT22;20121;51.910;8.406;2023-08-21T10:27:50;26.10;99.90
33815;DHT22;20121;51.910;8.406;2023-08-21T10:30:26;26.20;99.90
33815;DHT22;20121;51.910;8.406;2023-08-21T10:32:55;26.30;99.90
33815;DHT22;20121;51.910;8.406;2023-08-21T10:35:23;26.30;99.90
33815;DHT22;20121;51.910;8.406;2023-08-21T10:38:11;26.50;99.90
33815;DHT22;20121;51.910;8.406;2023-08-21T10:41:03;26.40;99.90
33815;DHT22;20121;51.910;8.406;2023-08-21T10:43:43;26.40;99.90
33815;DHT22;20121;51.910;8.406;2023-08-21T10:46:09;26.50;99.90
33815;DHT22;20121;51.910;8.406;2023-08-21T10:48:36;26.50;99.90
33815;DHT22;20121;51.910;8.406;2023-08-21T10:51:05;26.50;99.90
33815;DHT22;20121;51.910;8.406;2023-08-21T10:53:31;26.60;99.90
33815;DHT22;20121;51.910;8.406;2023-08-21T10:56:04;26.70;99.90
33815;DHT22;20121;51.910;8.406;2023-08-21T10:58:42;26.80;99.90
33815;DHT22;20121;51.910;8.406;2023-08-21T11:01:08;27.00;99.90
33815;DHT22;20121;51.910;8.406;2023-08-21T11:03:34;26.90;99.00
33815;DHT22;20121;51.910;8.406;2023-08-21T11:06:07;26.90;99.50
33815;DHT22;20121;51.910;8.406;2023-08-21T11:08:34;27.00;99.20
33815;DHT22;20121;51.910;8.406;2023-08-21T11:11:04;26.90;99.30
33815;DHT22;20121;51.910;8.406;2023-08-21T11:13:30;26.90;99.80
33815;DHT22;20121;51.910;8.406;2023-08-21T11:16:04;26.90;99.30
33815;DHT22;20121;51.910;8.406;2023-08-21T11:18:37;26.90;99.90
33815;DHT22;20121;51.910;8.406;2023-08-21T11:21:10;26.80;99.30
33815;DHT22;20121;51.910;8.406;2023-08-21T11:23:38;26.80;99.50
33815;DHT22;20121;51.910;8.406;2023-08-21T11:26:05;26.40;99.90
33815;DHT22;20121;51.910;8.406;2023-08-21T11:28:31;26.80;99.90
33815;DHT22;20121;51.910;8.406;2023-08-21T11:30:58;26.80;98.90
33815;DHT22;20121;51.910;8.406;2023-08-21T11:33:25;26.90;98.70
33815;DHT22;20121;51.910;8.406;2023-08-21T11:35:51;26.90;99.00
33815;DHT22;20121;51.910;8.406;2023-08-21T11:38:20;27.00;99.10
33815;DHT22;20121;51.910;8.406;2023-08-21T11:41:01;27.00;99.10
33815;DHT22;20121;51.910;8.406;2023-08-21T11:43:43;27.00;98.90
33815;DHT22;20121;51.910;8.406;2023-08-21T11:46:09;27.50;99.90
33815;DHT22;20121;51.910;8.406;2023-08-21T11:48:40;27.00;99.90
33815;DHT22;20121;51.910;8.406;2023-08-21T11:51:09;27.10;98.50
33815;DHT22;20121;51.910;8.406;2023-08-21T11:53:39;27.00;98.00
33815;DHT22;20121;51.910;8.406;2023-08-21T11:56:13;26.60;99.90
33815;DHT22;20121;51.910;8.406;2023-08-21T11:58:40;27.10;98.70
33815;DHT22;20121;51.910;8.406;2023-08-21T12:01:06;27.10;99.00
33815;DHT22;20121;51.910;8.406;2023-08-21T12:03:36;27.20;99.70
33815;DHT22;20121;51.910;8.406;2023-08-21T12:06:10;26.90;99.90
33815;DHT22;20121;51.910;8.406;2023-08-21T12:08:37;27.20;99.10
33815;DHT22;20121;51.910;8.406;2023-08-21T12:11:03;27.20;99.30
33815;DHT22;20121;51.910;8.406;2023-08-21T12:13:29;27.30;99.30
33815;DHT22;20121;51.910;8.406;2023-08-21T12:15:55;27.30;98.80
33815;DHT22;20121;51.910;8.406;2023-08-21T12:18:21;27.30;99.90
33815;DHT22;20121;51.910;8.406;2023-08-21T12:20:46;27.40;99.90
33815;DHT22;20121;51.910;8.406;2023-08-21T12:23:12;27.50;99.20
33815;DHT22;20121;51.910;8.406;2023-08-21T12:25:37;27.50;99.40
33815;DHT22;20121;51.910;8.406;2023-08-21T12:28:03;27.50;98.90
33815;DHT22;20121;51.910;8.406;2023-08-21T12:30:29;27.50;99.10
33815;DHT22;20121;51.910;8.406;2023-08-21T12:32:54;27.40;98.50
33815;DHT22;20121;51.910;8.406;2023-08-21T12:35:20;27.30;98.10
33815;DHT22;20121;51.910;8.406;2023-08-21T12:37:46;27.10;99.90
33815;DHT22;20121;51.910;8.406;2023-08-21T12:40:11;27.10;99.60
33815;DHT22;20121;51.910;8.406;2023-08-21T12:42:37;27.10;99.90
33815;DHT22;20121;51.910;8.406;2023-08-21T12:45:03;27.30;98.90
33815;DHT22;20121;51.910;8.406;2023-08-21T12:47:29;27.20;98.30
33815;DHT22;20121;51.910;8.406;2023-08-21T12:49:54;27.20;99.40
33815;DHT22;20121;51.910;8.406;2023-08-21T12:52:20;27.20;99.30
33815;DHT22;20121;51.910;8.406;2023-08-21T12:54:46;27.20;99.10
33815;DHT22;20121;51.910;8.406;2023-08-21T12:57:11;27.20;99.50
33815;DHT22;20121;51.910;8.406;2023-08-21T12:59:37;27.20;99.10
33815;DHT22;20121;51.910;8.406;2023-08-21T13:02:03;27.20;98.30
33815;DHT22;20121;51.910;8.406;2023-08-21T13:04:29;27.10;98.50
33815;DHT22;20121;51.910;8.406;2023-08-21T13:06:55;27.10;99.00
33815;DHT22;20121;51.910;8.406;2023-08-21T13:09:21;27.00;98.60
33815;DHT22;20121;51.910;8.406;2023-08-21T13:11:49;27.00;99.20
33815;DHT22;20121;51.910;8.406;2023-08-21T13:14:15;26.80;98.70
33815;DHT22;20121;51.910;8.406;2023-08-21T13:16:40;26.80;99.90
33815;DHT22;20121;51.910;8.406;2023-08-21T13:19:06;26.90;99.60
33815;DHT22;20121;51.910;8.406;2023-08-21T13:21:31;26.90;99.30
33815;DHT22;20121;51.910;8.406;2023-08-21T13:23:57;26.80;98.50
33815;DHT22;20121;51.910;8.406;2023-08-21T13:26:23;26.70;98.90
33815;DHT22;20121;51.910;8.406;2023-08-21T13:28:50;26.70;99.60
33815;DHT22;20121;51.910;8.406;2023-08-21T13:31:16;27.00;99.90
33815;DHT22;20121;51.910;8.406;2023-08-21T13:33:48;26.80;99.10
33815;DHT22;20121;51.910;8.406;2023-08-21T13:36:15;26.80;99.90
33815;DHT22;20121;51.910;8.406;2023-08-21T13:38:42;26.80;99.50
33815;DHT22;20121;51.910;8.406;2023-08-21T13:41:08;27.20;99.90
33815;DHT22;20121;51.910;8.406;2023-08-21T13:43:34;26.80;99.00
33815;DHT22;20121;51.910;8.406;2023-08-21T13:46:01;26.50;99.90
33815;DHT22;20121;51.910;8.406;2023-08-21T13:48:29;26.80;98.60
33815;DHT22;20121;51.910;8.406;2023-08-21T13:50:55;26.70;99.00
33815;DHT22;20121;51.910;8.406;2023-08-21T13:53:21;26.70;99.40
33815;DHT22;20121;51.910;8.406;2023-08-21T13:55:47;26.70;99.10
33815;DHT22;20121;51.910;8.406;2023-08-21T13:58:12;26.70;99.30
33815;DHT22;20121;51.910;8.406;2023-08-21T14:00:38;26.70;99.50
33815;DHT22;20121;51.910;8.406;2023-08-21T14:03:04;26.70;99.90
33815;DHT22;20121;51.910;8.406;2023-08-21T14:05:29;26.80;99.90
33815;DHT22;20121;51.910;8.406;2023-08-21T14:07:57;26.80;99.90
33815;DHT22;20121;51.910;8.406;2023-08-21T14:10:23;26.80;99.60
33815;DHT22;20121;51.910;8.406;2023-08-21T14:12:48;26.80;99.30
33815;DHT22;20121;51.910;8.406;2023-08-21T14:15:14;26.90;99.80
33815;DHT22;20121;51.910;8.406;2023-08-21T14:17:40;27.00;99.80
33815;DHT22;20121;51.910;8.406;2023-08-21T14:20:06;26.90;99.60
33815;DHT22;20121;51.910;8.406;2023-08-21T14:22:33;26.90;99.80
33815;DHT22;20121;51.910;8.406;2023-08-21T14:24:58;26.80;99.90
33815;DHT22;20121;51.910;8.406;2023-08-21T14:27:24;26.70;98.60
33815;DHT22;20121;51.910;8.406;2023-08-21T14:29:50;26.70;99.90
33815;DHT22;20121;51.910;8.406;2023-08-21T14:32:15;26.70;99.90
33815;DHT22;20121;51.910;8.406;2023-08-21T14:34:41;26.70;99.80
33815;DHT22;20121;51.910;8.406;2023-08-21T14:37:07;26.40;99.00
33815;DHT22;20121;51.910;8.406;2023-08-21T14:39:33;25.90;99.90
33815;DHT22;20121;51.910;8.406;2023-08-21T14:41:58;26.30;99.90
33815;DHT22;20121;51.910;8.406;2023-08-21T14:44:24;26.20;99.90
33815;DHT22;20121;51.910;8.406;2023-08-21T14:46:53;26.10;99.90
33815;DHT22;20121;51.910;8.406;2023-08-21T14:49:23;26.10;99.90
33815;DHT22;20121;51.910;8.406;2023-08-21T14:51:49;26.00;99.90
33815;DHT22;20121;51.910;8.406;2023-08-21T14:56:41;26.00;99.90
33815;DHT22;20121;51.910;8.406;2023-08-21T14:59:07;25.90;99.90
33815;DHT22;20121;51.910;8.406;2023-08-21T15:01:39;26.00;99.90
33815;DHT22;20121;51.910;8.406;2023-08-21T15:04:06;25.90;99.90
33815;DHT22;20121;51.910;8.406;2023-08-21T15:06:32;25.90;99.90
33815;DHT22;20121;51.910;8.406;2023-08-21T15:08:57;25.90;99.90
33815;DHT22;20121;51.910;8.406;2023-08-21T15:11:23;25.90;99.90
33815;DHT22;20121;51.910;8.406;2023-08-21T15:13:48;25.90;99.90
33815;DHT22;20121;51.910;8.406;2023-08-21T15:16:14;26.00;99.90
33815;DHT22;20121;51.910;8.406;2023-08-21T15:18:40;25.80;99.90
33815;DHT22;20121;51.910;8.406;2023-08-21T15:21:05;24.70;99.90
33815;DHT22;20121;51.910;8.406;2023-08-21T15:23:31;25.90;99.90
33815;DHT22;20121;51.910;8.406;2023-08-21T15:28:22;25.90;99.90
33815;DHT22;20121;51.910;8.406;2023-08-21T15:30:48;26.00;99.90
33815;DHT22;20121;51.910;8.406;2023-08-21T15:33:14;26.00;99.90
33815;DHT22;20121;51.910;8.406;2023-08-21T15:35:40;26.00;99.90